createdAt,value
2023-09-06T00:01:43.837Z,2.70
2023-09-06T00:04:10.616Z,2.75
2023-09-06T00:06:37.297Z,2.90
2023-09-06T00:09:04.769Z,3.22
2023-09-06T00:11:31.754Z,2.60
2023-09-06T00:13:58.415Z,2.65
2023-09-06T00:16:24.996Z,3.00
2023-09-06T00:18:51.714Z,2.90
2023-09-06T00:21:18.690Z,2.78
2023-09-06T00:23:45.187Z,2.40
2023-09-06T00:26:11.679Z,3.10
2023-09-06T00:28:39.999Z,2.70
2023-09-06T00:31:06.879Z,2.65
2023-09-06T00:33:35.953Z,2.65
2023-09-06T00:36:07.728Z,2.78
2023-09-06T00:38:34.329Z,2.80
2023-09-06T00:41:00.871Z,2.60
2023-09-06T00:43:27.419Z,2.70
2023-09-06T00:45:54.851Z,3.00
2023-09-06T00:50:55.570Z,2.63
2023-09-06T00:53:23.514Z,2.95
2023-09-06T00:55:50.418Z,2.92
2023-09-06T00:58:19.181Z,2.78
2023-09-06T01:00:50.391Z,3.17
2023-09-06T01:03:18.014Z,2.55
2023-09-06T01:08:56.863Z,2.72
2023-09-06T01:11:26.544Z,3.03
2023-09-06T01:13:54.042Z,2.70
2023-09-06T01:16:30.384Z,3.10
2023-09-06T01:18:58.150Z,2.85
2023-09-06T01:23:54.533Z,2.55
2023-09-06T01:26:21.525Z,2.58
2023-09-06T01:28:50.632Z,3.00
2023-09-06T01:31:18.093Z,2.85
2023-09-06T01:33:44.888Z,2.67
2023-09-06T01:36:11.582Z,3.00
2023-09-06T01:38:38.165Z,2.47
2023-09-06T01:41:05.341Z,2.42
2023-09-06T01:43:32.732Z,3.00
2023-09-06T01:48:26.516Z,2.85
2023-09-06T01:50:55.100Z,2.83
2023-09-06T01:53:23.761Z,2.42
2023-09-06T01:55:51.367Z,2.47
2023-09-06T02:00:46.490Z,2.60
2023-09-06T02:03:15.648Z,2.72
2023-09-06T02:05:42.911Z,2.58
2023-09-06T02:08:09.536Z,2.78
2023-09-06T02:10:36.127Z,3.00
2023-09-06T02:13:03.111Z,2.97
2023-09-06T02:15:31.674Z,2.55
2023-09-06T02:17:58.608Z,2.55
2023-09-06T02:20:26.875Z,2.65
2023-09-06T02:22:58.487Z,2.80
2023-09-06T02:25:30.371Z,2.90
2023-09-06T02:27:57.846Z,3.10
2023-09-06T02:30:24.496Z,2.45
2023-09-06T02:32:51.541Z,2.60
2023-09-06T02:35:18.099Z,2.67
2023-09-06T02:37:44.734Z,2.53
2023-09-06T02:40:15.304Z,2.85
2023-09-06T02:42:42.325Z,2.35
2023-09-06T02:45:13.227Z,2.47
2023-09-06T02:47:49.463Z,2.40
2023-09-06T02:50:26.460Z,2.30
2023-09-06T02:52:57.722Z,2.67
2023-09-06T02:55:25.219Z,2.38
2023-09-06T02:57:52.757Z,2.85
2023-09-06T03:00:25.910Z,2.80
2023-09-06T03:03:00.481Z,2.50
2023-09-06T03:05:28.464Z,2.60
2023-09-06T03:07:55.444Z,2.45
2023-09-06T03:10:24.319Z,2.53
2023-09-06T03:12:56.270Z,2.50
2023-09-06T03:15:31.156Z,2.63
2023-09-06T03:17:59.961Z,2.80
2023-09-06T03:20:34.136Z,2.40
2023-09-06T03:23:18.480Z,2.90
2023-09-06T03:25:55.349Z,2.88
2023-09-06T03:28:23.335Z,2.42
2023-09-06T03:30:50.487Z,2.80
2023-09-06T03:33:17.167Z,2.40
2023-09-06T03:35:46.979Z,2.47
2023-09-06T03:38:17.192Z,2.70
2023-09-06T03:40:44.802Z,2.28
2023-09-06T03:45:52.554Z,2.17
2023-09-06T03:48:21.752Z,2.42
2023-09-06T03:50:53.203Z,2.78
2023-09-06T03:53:20.080Z,2.40
2023-09-06T03:55:47.943Z,2.60
2023-09-06T03:58:14.790Z,2.60
2023-09-06T04:00:44.539Z,2.67
2023-09-06T04:03:13.736Z,2.42
2023-09-06T04:05:42.159Z,2.33
2023-09-06T04:08:10.036Z,2.33
2023-09-06T04:10:45.543Z,2.53
2023-09-06T04:13:14.255Z,2.63
2023-09-06T04:15:43.765Z,1.95
2023-09-06T04:18:11.959Z,2.88
2023-09-06T04:20:40.448Z,2.50
2023-09-06T04:23:09.761Z,2.88
2023-09-06T04:25:42.984Z,2.90
2023-09-06T04:28:11.101Z,2.83
2023-09-06T04:30:38.830Z,2.63
2023-09-06T04:33:11.471Z,2.55
2023-09-06T04:35:40.371Z,2.28
2023-09-06T04:38:10.891Z,2.83
2023-09-06T04:40:39.061Z,2.90
2023-09-06T04:43:07.212Z,2.63
2023-09-06T04:45:33.998Z,2.38
2023-09-06T04:48:00.854Z,2.50
2023-09-06T04:50:28.474Z,2.78
2023-09-06T04:55:21.886Z,2.90
2023-09-06T04:57:49.008Z,2.97
2023-09-06T05:00:20.008Z,3.17
2023-09-06T05:02:47.941Z,2.90
2023-09-06T05:05:16.458Z,2.95
2023-09-06T05:07:43.310Z,2.92
2023-09-06T05:10:13.387Z,3.13
2023-09-06T05:12:40.324Z,3.50
2023-09-06T05:15:08.138Z,3.42
2023-09-06T05:17:35.773Z,3.00
2023-09-06T05:20:29.120Z,2.90
2023-09-06T05:23:07.400Z,2.80
2023-09-06T05:25:34.835Z,3.00
2023-09-06T05:28:05.844Z,2.95
2023-09-06T05:30:35.861Z,2.80
2023-09-06T05:33:02.511Z,3.00
2023-09-06T05:35:29.174Z,2.80
2023-09-06T05:37:55.923Z,2.97
2023-09-06T05:40:24.534Z,3.40
2023-09-06T05:42:52.167Z,3.05
2023-09-06T05:45:20.668Z,3.55
2023-09-06T05:47:48.091Z,3.35
2023-09-06T05:52:42.003Z,2.47
2023-09-06T05:55:09.424Z,3.20
2023-09-06T05:57:36.177Z,2.97
2023-09-06T06:00:05.214Z,2.85
2023-09-06T06:02:32.975Z,3.58
2023-09-06T06:04:59.687Z,3.85
2023-09-06T06:07:26.320Z,2.90
2023-09-06T06:09:55.452Z,3.08
2023-09-06T06:12:23.909Z,3.08
2023-09-06T06:14:52.994Z,3.03
2023-09-06T06:17:19.781Z,2.85
2023-09-06T06:19:48.620Z,3.00
2023-09-06T06:22:15.212Z,3.20
2023-09-06T06:24:47.095Z,3.10
2023-09-06T06:27:14.629Z,2.83
2023-09-06T06:29:41.410Z,2.80
2023-09-06T06:32:08.649Z,2.90
2023-09-06T06:34:40.192Z,2.65
2023-09-06T06:37:08.270Z,2.80
2023-09-06T06:39:34.808Z,2.60
2023-09-06T06:42:01.371Z,2.90
2023-09-06T06:44:27.860Z,2.53
2023-09-06T06:46:54.421Z,2.50
2023-09-06T06:49:21.074Z,2.45
2023-09-06T06:51:47.652Z,2.78
2023-09-06T06:54:17.122Z,2.60
2023-09-06T06:56:43.749Z,2.50
2023-09-06T06:59:11.204Z,2.60
2023-09-06T07:01:38.012Z,2.22
2023-09-06T07:04:07.704Z,2.80
2023-09-06T07:06:35.315Z,2.30
2023-09-06T07:09:04.906Z,2.42
2023-09-06T07:11:32.639Z,2.20
2023-09-06T07:16:27.614Z,2.30
2023-09-06T07:18:56.051Z,2.33
2023-09-06T07:21:22.553Z,2.47
2023-09-06T07:23:49.136Z,2.58
2023-09-06T07:26:15.778Z,2.47
2023-09-06T07:28:45.102Z,2.28
2023-09-06T07:31:12.775Z,2.22
2023-09-06T07:33:39.908Z,2.70
2023-09-06T07:36:07.238Z,2.42
2023-09-06T07:38:34.234Z,2.28
2023-09-06T07:41:02.606Z,2.10
2023-09-06T07:43:30.232Z,2.50
2023-09-06T07:45:58.010Z,2.67
2023-09-06T07:48:33.008Z,2.42
2023-09-06T07:51:00.572Z,2.40
2023-09-06T07:53:27.795Z,2.70
2023-09-06T07:55:56.453Z,2.22
2023-09-06T07:58:23.933Z,2.45
2023-09-06T08:03:29.218Z,2.53
2023-09-06T08:05:56.899Z,2.60
2023-09-06T08:08:23.684Z,2.40
2023-09-06T08:10:50.336Z,2.25
2023-09-06T08:13:16.868Z,2.80
2023-09-06T08:15:43.503Z,2.45
2023-09-06T08:18:10.175Z,2.60
2023-09-06T08:20:36.922Z,2.42
2023-09-06T08:23:05.261Z,2.28
2023-09-06T08:25:32.284Z,3.38
2023-09-06T08:27:58.754Z,2.47
2023-09-06T08:30:25.363Z,2.50
2023-09-06T08:32:52.554Z,2.55
2023-09-06T08:37:48.722Z,3.22
2023-09-06T08:40:17.118Z,2.63
2023-09-06T08:42:45.429Z,2.85
2023-09-06T08:45:12.455Z,2.67
2023-09-06T08:47:42.758Z,2.47
2023-09-06T08:50:11.092Z,2.90
2023-09-06T08:52:40.879Z,2.60
2023-09-06T08:55:10.957Z,2.50
2023-09-06T08:57:42.873Z,2.40
2023-09-06T09:00:11.245Z,2.40
2023-09-06T09:02:39.072Z,2.67
2023-09-06T09:05:19.050Z,2.70
2023-09-06T09:07:58.008Z,2.55
2023-09-06T09:10:27.631Z,2.75
2023-09-06T09:12:56.885Z,2.42
2023-09-06T09:15:27.198Z,2.78
2023-09-06T09:18:00.581Z,2.72
2023-09-06T09:20:29.254Z,2.47
2023-09-06T09:23:04.802Z,2.30
2023-09-06T09:25:33.810Z,2.53
2023-09-06T09:28:00.880Z,3.05
2023-09-06T09:33:01.192Z,2.70
2023-09-06T09:35:28.172Z,2.53
2023-09-06T09:37:55.078Z,2.42
2023-09-06T09:40:27.530Z,2.83
2023-09-06T09:43:03.310Z,2.13
2023-09-06T09:45:37.393Z,2.90
2023-09-06T09:48:04.315Z,2.53
2023-09-06T09:50:34.398Z,2.83
2023-09-06T09:53:15.244Z,2.45
2023-09-06T09:55:48.242Z,2.30
2023-09-06T09:58:15.985Z,2.72
2023-09-06T10:00:43.518Z,2.83
2023-09-06T10:03:11.191Z,2.92
2023-09-06T10:05:39.391Z,2.60
2023-09-06T10:08:10.513Z,2.28
2023-09-06T10:10:41.602Z,2.53
2023-09-06T10:13:11.039Z,2.42
2023-09-06T10:15:39.252Z,2.80
2023-09-06T10:18:07.950Z,2.45
2023-09-06T10:20:36.841Z,2.53
2023-09-06T10:23:07.141Z,2.42
2023-09-06T10:25:41.047Z,2.40
2023-09-06T10:28:08.793Z,2.60
2023-09-06T10:30:46.713Z,2.50
2023-09-06T10:33:32.506Z,2.35
2023-09-06T10:36:04.650Z,2.60
2023-09-06T10:38:32.063Z,2.58
2023-09-06T10:40:58.571Z,2.55
2023-09-06T10:43:29.872Z,2.50
2023-09-06T10:45:59.639Z,2.53
2023-09-06T10:48:26.783Z,2.47
2023-09-06T10:51:14.120Z,2.63
2023-09-06T10:53:48.575Z,2.38
2023-09-06T10:56:15.114Z,2.58
2023-09-06T10:58:41.650Z,2.75
2023-09-06T11:01:14.113Z,2.80
2023-09-06T11:03:48.198Z,2.40
2023-09-06T11:06:14.830Z,2.50
2023-09-06T11:08:41.936Z,2.42
2023-09-06T11:11:10.937Z,2.42
2023-09-06T11:13:38.836Z,2.47
2023-09-06T11:16:06.812Z,2.60
2023-09-06T11:18:47.226Z,2.20
2023-09-06T11:21:32.871Z,2.63
2023-09-06T11:23:59.430Z,2.63
2023-09-06T11:26:27.418Z,2.40
2023-09-06T11:29:02.350Z,2.40
2023-09-06T11:31:34.387Z,2.25
2023-09-06T11:34:05.817Z,2.42
2023-09-06T11:36:35.218Z,2.72
2023-09-06T11:39:17.023Z,2.40
2023-09-06T11:41:44.873Z,2.35
2023-09-06T11:44:15.489Z,2.53
2023-09-06T11:46:44.804Z,1.80
2023-09-06T11:49:15.831Z,2.35
2023-09-06T11:51:44.946Z,2.35
2023-09-06T11:54:11.652Z,2.38
2023-09-06T11:56:41.447Z,2.65
2023-09-06T11:59:13.740Z,2.40
2023-09-06T12:01:41.547Z,2.53
2023-09-06T12:04:11.503Z,2.28
2023-09-06T12:06:42.711Z,2.60
2023-09-06T12:09:13.486Z,2.58
2023-09-06T12:11:40.877Z,2.50
2023-09-06T12:14:11.502Z,2.67
2023-09-06T12:16:39.153Z,2.47
2023-09-06T12:19:05.953Z,2.60
2023-09-06T12:21:33.002Z,2.70
2023-09-06T12:26:26.353Z,2.75
2023-09-06T12:28:52.968Z,2.55
2023-09-06T12:31:19.533Z,2.47
2023-09-06T12:33:49.122Z,2.70
2023-09-06T12:36:18.395Z,2.53
2023-09-06T12:38:45.958Z,2.60
2023-09-06T12:41:13.632Z,2.50
2023-09-06T12:43:40.167Z,2.78
2023-09-06T12:46:10.013Z,2.70
2023-09-06T12:48:37.192Z,3.03
2023-09-06T12:51:06.200Z,2.40
2023-09-06T12:53:33.600Z,2.67
2023-09-06T12:56:01.305Z,2.58
2023-09-06T12:58:28.877Z,2.70
2023-09-06T13:00:55.939Z,2.53
2023-09-06T13:03:22.697Z,2.88
2023-09-06T13:05:50.264Z,2.90
2023-09-06T13:08:20.138Z,2.70
2023-09-06T13:10:47.337Z,2.70
2023-09-06T13:13:14.191Z,2.47
2023-09-06T13:15:41.053Z,2.38
2023-09-06T13:18:08.567Z,2.80
2023-09-06T13:20:35.221Z,2.97
2023-09-06T13:23:02.260Z,2.55
2023-09-06T13:25:28.794Z,2.55
2023-09-06T13:27:55.389Z,2.75
2023-09-06T13:30:22.127Z,2.63
2023-09-06T13:32:48.786Z,2.50
2023-09-06T13:35:15.399Z,2.95
2023-09-06T13:37:42.089Z,2.53
2023-09-06T13:40:09.434Z,2.47
2023-09-06T13:42:36.465Z,2.42
2023-09-06T13:45:03.489Z,2.60
2023-09-06T13:49:58.137Z,2.53
2023-09-06T13:52:24.682Z,2.40
2023-09-06T13:54:51.248Z,2.60
2023-09-06T13:57:17.799Z,2.78
2023-09-06T13:59:44.338Z,2.55
2023-09-06T14:02:11.077Z,2.50
2023-09-06T14:04:38.039Z,2.40
2023-09-06T14:07:04.890Z,2.30
2023-09-06T14:09:31.527Z,2.47
2023-09-06T14:11:58.054Z,2.67
2023-09-06T14:14:24.920Z,2.45
2023-09-06T14:16:52.164Z,2.47
2023-09-06T14:19:18.788Z,2.38
2023-09-06T14:21:47.260Z,2.65
2023-09-06T14:24:16.921Z,2.50
2023-09-06T14:26:44.464Z,2.60
2023-09-06T14:29:13.448Z,2.30
2023-09-06T14:31:40.712Z,2.60
2023-09-06T14:36:34.063Z,3.38
2023-09-06T14:39:02.259Z,2.55
2023-09-06T14:41:28.830Z,2.70
2023-09-06T14:43:56.673Z,3.03
2023-09-06T14:46:23.640Z,3.10
2023-09-06T14:48:50.524Z,2.65
2023-09-06T14:51:17.202Z,2.67
2023-09-06T14:53:43.802Z,2.70
2023-09-06T14:56:10.759Z,2.70
2023-09-06T15:01:05.178Z,2.60
2023-09-06T15:03:34.927Z,2.60
2023-09-06T15:06:01.599Z,2.42
2023-09-06T15:08:28.773Z,2.53
2023-09-06T15:10:55.473Z,2.53
2023-09-06T15:13:22.025Z,2.65
2023-09-06T15:15:49.281Z,2.70
2023-09-06T15:18:16.053Z,2.53
2023-09-06T15:20:42.800Z,2.40
2023-09-06T15:23:09.309Z,2.55
2023-09-06T15:25:35.936Z,2.65
2023-09-06T15:28:02.592Z,2.63
2023-09-06T15:30:29.294Z,2.60
2023-09-06T15:32:56.107Z,2.80
2023-09-06T15:35:28.109Z,2.40
2023-09-06T15:38:04.437Z,2.67
2023-09-06T15:40:32.970Z,2.50
2023-09-06T15:42:59.792Z,2.65
2023-09-06T15:45:26.718Z,2.80
2023-09-06T15:47:53.629Z,2.90
2023-09-06T15:50:21.197Z,2.60
2023-09-06T15:52:48.598Z,2.30
2023-09-06T15:55:16.147Z,2.70
2023-09-06T15:57:44.896Z,2.50
2023-09-06T16:00:28.817Z,2.60
2023-09-06T16:02:59.185Z,2.70
2023-09-06T16:05:26.085Z,2.38
2023-09-06T16:07:52.607Z,2.72
2023-09-06T16:10:19.302Z,2.58
2023-09-06T16:12:49.181Z,2.65
2023-09-06T16:15:17.044Z,2.95
2023-09-06T16:17:46.002Z,2.60
2023-09-06T16:20:13.061Z,2.75
2023-09-06T16:22:39.629Z,2.65
2023-09-06T16:25:08.945Z,2.78
2023-09-06T16:27:36.057Z,2.78
2023-09-06T16:30:05.653Z,3.00
2023-09-06T16:32:33.203Z,2.83
2023-09-06T16:35:00.036Z,2.40
2023-09-06T16:37:26.738Z,3.15
2023-09-06T16:39:53.289Z,2.60
2023-09-06T16:42:20.678Z,3.15
2023-09-06T16:44:47.221Z,2.35
2023-09-06T16:47:13.818Z,2.78
2023-09-06T16:49:43.691Z,2.60
2023-09-06T16:52:10.565Z,2.90
2023-09-06T16:54:37.365Z,2.90
2023-09-06T16:57:05.251Z,3.10
2023-09-06T16:59:32.725Z,3.08
2023-09-06T17:01:59.580Z,3.13
2023-09-06T17:04:26.556Z,3.00
2023-09-06T17:06:53.108Z,3.20
2023-09-06T17:09:19.660Z,3.00
2023-09-06T17:11:46.188Z,3.03
2023-09-06T17:14:12.813Z,2.83
2023-09-06T17:16:39.845Z,3.15
2023-09-06T17:21:41.293Z,3.05
2023-09-06T17:24:09.836Z,2.47
2023-09-06T17:26:37.940Z,3.13
2023-09-06T17:29:08.655Z,3.10
2023-09-06T17:31:35.701Z,3.15
2023-09-06T17:34:02.516Z,3.28
2023-09-06T17:36:29.672Z,3.25
2023-09-06T17:41:24.695Z,2.83
2023-09-06T17:43:52.309Z,3.67
2023-09-06T17:46:25.280Z,2.97
2023-09-06T17:48:54.151Z,2.83
2023-09-06T17:51:21.188Z,2.90
2023-09-06T17:56:17.636Z,3.10
2023-09-06T17:58:46.494Z,2.90
2023-09-06T18:01:15.200Z,2.60
2023-09-06T18:03:45.689Z,2.95
2023-09-06T18:06:14.897Z,2.55
2023-09-06T18:08:43.083Z,3.00
2023-09-06T18:11:10.454Z,2.78
2023-09-06T18:13:41.446Z,2.90
2023-09-06T18:16:15.973Z,2.90
2023-09-06T18:18:43.811Z,2.80
2023-09-06T18:21:11.848Z,2.85
2023-09-06T18:23:39.012Z,3.00
2023-09-06T18:26:06.988Z,3.05
2023-09-06T18:28:33.642Z,2.65
2023-09-06T18:31:01.321Z,2.72
2023-09-06T18:33:27.999Z,3.17
2023-09-06T18:35:56.383Z,3.15
2023-09-06T18:38:24.632Z,2.95
2023-09-06T18:40:54.492Z,2.70
2023-09-06T18:43:23.106Z,2.95
2023-09-06T18:45:49.904Z,2.95
2023-09-06T18:48:18.843Z,2.80
2023-09-06T18:50:49.484Z,3.00
2023-09-06T18:53:16.164Z,3.00
2023-09-06T18:55:45.549Z,3.03
2023-09-06T18:58:12.699Z,3.10
2023-09-06T19:00:42.882Z,3.35
2023-09-06T19:03:13.918Z,3.13
2023-09-06T19:05:42.401Z,2.85
2023-09-06T19:08:15.427Z,3.00
2023-09-06T19:10:43.328Z,3.00
2023-09-06T19:13:11.457Z,3.70
2023-09-06T19:15:39.622Z,2.83
2023-09-06T19:18:07.558Z,3.20
2023-09-06T19:20:37.508Z,3.28
2023-09-06T19:23:07.577Z,3.25
2023-09-06T19:25:38.939Z,3.42
2023-09-06T19:28:08.042Z,3.05
2023-09-06T19:30:34.665Z,3.15
2023-09-06T19:33:01.321Z,3.65
2023-09-06T19:35:27.887Z,2.90
2023-09-06T19:37:54.400Z,3.05
2023-09-06T19:40:20.935Z,3.35
2023-09-06T19:42:47.450Z,3.47
2023-09-06T19:45:14.007Z,3.30
2023-09-06T19:47:40.696Z,3.67
2023-09-06T19:50:08.079Z,3.40
2023-09-06T19:52:34.683Z,3.30
2023-09-06T19:55:02.134Z,3.60
2023-09-06T19:59:58.664Z,3.28
2023-09-06T20:02:27.788Z,3.63
2023-09-06T20:04:54.662Z,3.78
2023-09-06T20:07:21.311Z,3.42
2023-09-06T20:09:48.649Z,2.95
2023-09-06T20:12:15.226Z,3.38
2023-09-06T20:14:41.752Z,3.53
2023-09-06T20:17:08.374Z,3.35
2023-09-06T20:19:34.947Z,3.13
2023-09-06T20:22:01.488Z,3.05
2023-09-06T20:24:28.320Z,2.97
2023-09-06T20:26:54.910Z,3.30
2023-09-06T20:29:27.998Z,3.47
2023-09-06T20:31:58.513Z,3.40
2023-09-06T20:34:26.777Z,3.10
2023-09-06T20:36:53.245Z,3.15
2023-09-06T20:39:19.726Z,3.80
2023-09-06T20:41:46.315Z,3.47
2023-09-06T20:44:12.837Z,3.47
2023-09-06T20:46:39.455Z,3.42
2023-09-06T20:49:06.091Z,3.50
2023-09-06T20:51:32.611Z,3.83
2023-09-06T20:53:59.110Z,3.72
2023-09-06T20:56:25.768Z,3.35
2023-09-06T20:58:52.274Z,2.95
2023-09-06T21:01:22.540Z,2.80
2023-09-06T21:03:49.442Z,3.33
2023-09-06T21:06:16.241Z,2.92
2023-09-06T21:08:43.134Z,3.53
2023-09-06T21:11:09.887Z,2.97
2023-09-06T21:13:36.437Z,3.30
2023-09-06T21:16:03.406Z,2.80
2023-09-06T21:18:31.028Z,3.05
2023-09-06T21:20:58.714Z,3.20
2023-09-06T21:23:25.747Z,3.20
2023-09-06T21:25:52.377Z,3.17
2023-09-06T21:28:19.960Z,3.10
2023-09-06T21:30:48.472Z,3.47
2023-09-06T21:33:16.391Z,3.42
2023-09-06T21:35:44.830Z,3.63
2023-09-06T21:38:12.332Z,3.25
2023-09-06T21:43:16.932Z,3.38
2023-09-06T21:45:44.778Z,2.80
2023-09-06T21:48:11.795Z,2.83
2023-09-06T21:50:40.004Z,2.92
2023-09-06T21:53:07.027Z,3.55
2023-09-06T21:55:34.105Z,2.80
2023-09-06T21:58:09.714Z,3.10
2023-09-06T22:00:37.729Z,2.97
2023-09-06T22:03:04.788Z,2.92
2023-09-06T22:05:31.514Z,3.10
2023-09-06T22:07:58.098Z,3.35
2023-09-06T22:10:24.784Z,3.50
2023-09-06T22:12:51.583Z,2.92
2023-09-06T22:15:18.467Z,3.17
2023-09-06T22:17:44.961Z,2.95
2023-09-06T22:20:11.638Z,2.95
2023-09-06T22:22:38.290Z,2.58
2023-09-06T22:25:08.311Z,2.95
2023-09-06T22:27:35.518Z,3.70
2023-09-06T22:30:03.802Z,3.13
2023-09-06T22:32:30.405Z,2.90
2023-09-06T22:34:59.840Z,3.50
2023-09-06T22:37:26.431Z,2.88
2023-09-06T22:39:53.063Z,3.15
2023-09-06T22:42:19.731Z,3.17
2023-09-06T22:44:46.479Z,2.80
2023-09-06T22:47:13.153Z,3.13
2023-09-06T22:49:39.860Z,2.80
2023-09-06T22:52:07.933Z,2.97
2023-09-06T22:54:39.919Z,2.95
2023-09-06T22:57:07.805Z,3.10
2023-09-06T22:59:35.295Z,2.90
2023-09-06T23:04:33.414Z,2.80
2023-09-06T23:07:01.033Z,2.72
2023-09-06T23:11:57.377Z,2.70
2023-09-06T23:14:27.431Z,2.83
2023-09-06T23:16:54.897Z,3.10
2023-09-06T23:19:26.224Z,2.67
2023-09-06T23:21:56.318Z,2.78
2023-09-06T23:24:23.812Z,2.63
2023-09-06T23:26:58.008Z,2.72
2023-09-06T23:29:26.963Z,3.08
2023-09-06T23:31:59.791Z,3.08
2023-09-06T23:34:30.725Z,2.75
2023-09-06T23:36:59.117Z,2.70
2023-09-06T23:39:29.304Z,2.83
2023-09-06T23:41:57.883Z,2.90
2023-09-06T23:44:25.113Z,2.67
2023-09-06T23:46:52.043Z,2.75
2023-09-06T23:49:21.089Z,2.78
2023-09-06T23:51:48.106Z,2.83
2023-09-06T23:54:15.285Z,2.78
2023-09-06T23:56:42.104Z,2.75
2023-09-06T23:59:08.752Z,2.65
